Time;durP1;ratioP1;P1;durP2;ratioP2;P2;SDS_P1;SDS_P2;PMS_P1;PMS_P2;Temp;Humidity;BMP_temperature;BMP_pressure;BME280_temperature;BME280_humidity;BME280_pressure;Samples;Min_cycle;Max_cycle;Signal;HPM_P1;HPM_P2
2023/04/25 00:01:35;;;;;;;;;;;11.80;80.00;;;12.12;50.38;98100.97;4898138;28;122589;-85
2023/04/25 00:04:05;;;;;;;;;;;11.90;80.20;;;12.13;50.19;98094.25;4914116;28;114028;-86
2023/04/25 00:06:52;;;;;;;;;;;11.90;80.20;;;12.18;50.01;98096.81;4899248;28;113858;-83
2023/04/25 00:09:18;;;;;;;;;;;11.90;80.10;;;12.17;50.02;98086.91;4894895;28;123310;-85
2023/04/25 00:11:58;;;;;;;;;;;11.90;80.00;;;12.18;49.96;98088.50;4897879;28;123515;-85
2023/04/25 00:14:45;;;;;;;;;;;11.90;80.00;;;12.20;49.88;98089.00;4885208;28;114363;-84
2023/04/25 00:17:16;;;;;;;;;;;11.90;80.00;;;12.23;50.18;98082.75;4913845;28;113293;-86
2023/04/25 00:19:44;;;;;;;;;;;12.00;80.20;;;12.26;50.20;98084.84;4911287;28;124285;-85
2023/04/25 00:22:16;;;;;;;;;;;12.00;80.10;;;12.27;50.01;98075.38;4911372;28;122790;-85
2023/04/25 00:24:44;;;;;;;;;;;12.00;80.20;;;12.29;50.21;98084.16;4898660;28;113972;-85
2023/04/25 00:27:14;;;;;;;;;;;12.00;80.10;;;12.33;50.23;98081.50;4912504;28;114309;-84
2023/04/25 00:29:45;;;;;;;;;;;12.00;80.30;;;12.35;49.99;98091.09;4913878;28;122738;-85
2023/04/25 00:32:12;;;;;;;;;;;12.00;80.30;;;12.35;49.97;98085.56;4897666;28;122087;-85
2023/04/25 00:35:01;;;;;;;;;;;12.00;80.30;;;12.36;50.24;98080.84;4910082;28;115244;-86
2023/04/25 00:37:30;;;;;;;;;;;12.10;80.30;;;12.35;50.10;98073.66;4890567;28;114290;-85
2023/04/25 00:39:59;;;;;;;;;;;12.10;80.20;;;12.32;49.94;98071.59;4897413;28;123512;-86
2023/04/25 00:42:37;;;;;;;;;;;12.10;80.20;;;12.27;50.17;98067.06;4898192;28;123049;-85
2023/04/25 00:45:08;;;;;;;;;;;12.00;80.10;;;12.27;50.00;98074.56;4899670;28;114115;-85
2023/04/25 00:47:36;;;;;;;;;;;12.00;80.10;;;12.26;49.85;98076.53;4897153;28;113298;-85
2023/04/25 00:50:03;;;;;;;;;;;12.00;80.10;;;12.23;49.99;98071.69;4899130;28;123659;-84
2023/04/25 00:52:30;;;;;;;;;;;12.00;80.70;;;12.24;50.09;98062.22;4913084;28;123938;-86
2023/04/25 00:54:56;;;;;;;;;;;12.00;80.00;;;12.20;50.08;98055.75;4910558;28;114868;-85
2023/04/25 00:57:34;;;;;;;;;;;12.00;80.00;;;12.20;50.00;98069.59;4912559;28;113775;-85
2023/04/25 01:00:01;;;;;;;;;;;10.70;78.80;;;12.20;50.02;98057.69;4909942;28;123919;-86
2023/04/25 01:02:28;;;;;;;;;;;12.00;80.10;;;12.20;49.99;98064.06;4888164;28;122601;-86
2023/04/25 01:04:57;;;;;;;;;;;12.00;80.10;;;12.22;49.89;98058.97;4895467;28;113055;-86
2023/04/25 01:07:26;;;;;;;;;;;12.00;80.10;;;12.24;50.24;98062.22;4894260;28;113379;-85
2023/04/25 01:09:56;;;;;;;;;;;11.90;80.00;;;12.20;49.95;98053.00;4883918;28;123354;-86
2023/04/25 01:12:24;;;;;;;;;;;11.90;80.10;;;12.21;49.98;98056.56;4885787;28;123884;-85
2023/04/25 01:14:59;;;;;;;;;;;12.00;80.20;;;12.22;50.19;98052.63;4910099;28;114547;-86
2023/04/25 01:17:27;;;;;;;;;;;12.00;80.20;;;12.26;50.12;98045.28;4897958;28;113067;-87
2023/04/25 01:19:55;;;;;;;;;;;12.00;80.20;;;12.29;49.81;98056.47;4897536;28;122336;-87
2023/04/25 01:22:41;;;;;;;;;;;12.00;80.30;;;12.27;49.91;98050.44;4912986;28;123147;-85
2023/04/25 01:25:10;;;;;;;;;;;12.00;80.30;;;12.25;49.93;98049.16;4896870;28;114839;-85
2023/04/25 01:27:39;;;;;;;;;;;12.00;80.30;;;12.22;50.30;98045.13;4886777;28;113238;-85
2023/04/25 01:30:07;;;;;;;;;;;11.90;80.30;;;12.21;50.15;98040.75;4894251;28;122594;-86
2023/04/25 01:32:38;;;;;;;;;;;12.00;80.50;;;12.20;50.35;98049.38;4895001;28;123409;-87
2023/04/25 01:35:23;;;;;;;;;;;11.90;80.30;;;12.15;50.39;98042.13;4896058;28;113848;-86
2023/04/25 01:38:01;;;;;;;;;;;11.90;80.40;;;12.09;50.63;98040.69;4901322;28;113310;-84
2023/04/25 01:40:27;;;;;;;;;;;11.90;80.40;;;12.04;50.38;98041.75;4896781;28;123454;-85
2023/04/25 01:42:55;;;;;;;;;;;11.80;80.40;;;12.01;50.89;98047.13;4888403;28;123416;-84
2023/04/25 01:45:25;;;;;;;;;;;11.90;80.70;;;11.97;50.92;98051.75;4910775;28;114360;-85
2023/04/25 01:47:59;;;;;;;;;;;11.80;80.70;;;11.97;50.98;98047.00;4902958;28;114243;-85
2023/04/25 01:50:33;;;;;;;;;;;11.70;80.80;;;11.94;50.94;98040.19;4912218;28;123821;-84
2023/04/25 01:53:02;;;;;;;;;;;11.70;81.00;;;11.94;51.36;98053.22;4910366;28;123735;-84
2023/04/25 01:55:43;;;;;;;;;;;11.70;81.20;;;11.92;51.12;98039.72;4897646;28;112641;-84
2023/04/25 01:58:23;;;;;;;;;;;11.70;81.20;;;11.93;51.22;98033.06;4910982;28;113588;-83
2023/04/25 02:00:52;;;;;;;;;;;11.70;81.30;;;11.96;51.43;98039.06;4896742;28;124007;-86
2023/04/25 02:03:32;;;;;;;;;;;11.70;81.50;;;11.94;51.24;98036.63;4896798;28;122513;-83
2023/04/25 02:06:10;;;;;;;;;;;11.70;81.60;;;11.89;51.51;98042.38;4896696;28;114435;-85
2023/04/25 02:08:47;;;;;;;;;;;11.60;81.60;;;11.85;51.75;98022.84;4897343;28;113044;-85
2023/04/25 02:11:16;;;;;;;;;;;11.60;81.80;;;11.83;51.63;98035.41;4896243;28;124418;-85
2023/04/25 02:13:49;;;;;;;;;;;11.60;81.90;;;11.81;52.04;98038.50;4896820;28;123067;-85
2023/04/25 02:16:19;;;;;;;;;;;11.60;82.10;;;11.79;52.04;98040.78;4896589;28;115079;-86
2023/04/25 02:18:47;;;;;;;;;;;11.60;82.20;;;11.76;52.13;98044.22;4899759;28;113406;-86
2023/04/25 02:21:17;;;;;;;;;;;11.50;82.20;;;11.71;52.19;98034.19;4899885;28;123444;-85
2023/04/25 02:23:48;;;;;;;;;;;11.50;82.30;;;11.69;51.99;98041.22;4915845;28;123268;-85
2023/04/25 02:26:14;;;;;;;;;;;11.50;82.40;;;11.70;52.21;98035.34;4912650;28;114215;-85
2023/04/25 02:28:48;;;;;;;;;;;12.40;83.40;;;11.72;52.35;98035.00;4916482;28;113656;-86
2023/04/25 02:31:19;;;;;;;;;;;11.50;82.60;;;11.73;52.20;98020.00;4886212;28;124242;-85
2023/04/25 02:33:47;;;;;;;;;;;11.50;82.80;;;11.75;52.52;98017.72;4916058;28;123325;-86
2023/04/25 02:36:18;;;;;;;;;;;11.50;82.80;;;11.77;52.62;98028.44;4898455;28;113683;-86
2023/04/25 02:38:50;;;;;;;;;;;11.50;83.00;;;11.75;52.80;98016.91;4916311;28;112207;-86
2023/04/25 02:41:20;;;;;;;;;;;11.50;83.00;;;11.74;52.25;98027.19;4915371;28;123789;-86
2023/04/25 02:43:59;;;;;;;;;;;11.50;83.00;;;11.75;52.09;98028.78;4899691;28;123724;-85
2023/04/25 02:46:29;;;;;;;;;;;11.50;83.00;;;11.74;52.64;98018.88;4899447;28;113929;-85
2023/04/25 02:49:04;;;;;;;;;;;11.50;83.10;;;11.73;52.63;98008.94;4899824;28;113100;-85
2023/04/25 02:51:31;;;;;;;;;;;11.50;83.10;;;11.72;52.55;98012.88;4913591;28;124180;-86
2023/04/25 02:54:06;;;;;;;;;;;11.50;83.30;;;11.72;52.38;98015.63;4913570;28;123173;-85
2023/04/25 02:56:32;;;;;;;;;;;11.50;83.10;;;11.70;52.41;98015.16;4899986;28;113087;-87
2023/04/25 02:58:58;;;;;;;;;;;11.50;83.00;;;11.67;52.31;98007.53;4917014;28;114188;-86
2023/04/25 03:01:28;;;;;;;;;;;11.50;82.90;;;11.66;52.42;98019.72;4900783;28;123541;-87
2023/04/25 03:04:04;;;;;;;;;;;11.40;82.90;;;11.59;52.60;98020.28;4914545;28;123821;-86
2023/04/25 03:06:31;;;;;;;;;;;11.40;83.00;;;11.57;52.88;98022.59;4899313;28;115169;-86
2023/04/25 03:09:03;;;;;;;;;;;11.40;83.00;;;11.52;52.35;98020.00;4912505;28;114858;-86
2023/04/25 03:11:34;;;;;;;;;;;11.30;82.90;;;11.46;52.30;98019.41;4902550;28;123379;-86
2023/04/25 03:14:00;;;;;;;;;;;11.20;82.90;;;11.44;52.88;98015.38;4901911;28;123774;-85
2023/04/25 03:16:27;;;;;;;;;;;11.20;83.00;;;11.41;52.59;98010.50;4885549;28;113861;-85
2023/04/25 03:18:54;;;;;;;;;;;11.20;82.90;;;11.40;52.53;98012.47;4902241;28;113519;-84
2023/04/25 03:21:20;;;;;;;;;;;11.10;82.90;;;11.43;52.55;98013.75;4914696;28;123687;-86
2023/04/25 03:23:46;;;;;;;;;;;11.20;83.20;;;11.44;52.62;98007.06;4913565;28;123423;-85
2023/04/25 03:26:12;;;;;;;;;;;11.20;83.10;;;11.43;52.88;98006.25;4911529;28;114760;-85
2023/04/25 03:28:40;;;;;;;;;;;12.20;84.00;;;11.43;52.46;97999.94;4910547;28;113393;-86
2023/04/25 03:31:07;;;;;;;;;;;11.20;82.90;;;11.43;52.58;98009.03;4898329;28;123822;-86
2023/04/25 03:33:33;;;;;;;;;;;11.20;83.00;;;11.43;52.66;98003.50;4891826;28;122241;-87
2023/04/25 03:36:04;;;;;;;;;;;11.20;82.90;;;11.45;52.83;98005.94;4896426;28;114584;-86
2023/04/25 03:38:41;;;;;;;;;;;11.20;83.00;;;11.47;52.24;98017.44;4898647;28;113476;-86
2023/04/25 03:41:41;;;;;;;;;;;11.20;83.00;;;11.41;52.52;98005.78;4914906;28;123904;-85
2023/04/25 03:44:09;;;;;;;;;;;11.20;83.00;;;11.36;52.36;98017.03;4890103;28;122324;-84
2023/04/25 03:46:35;;;;;;;;;;;11.10;82.80;;;11.36;52.55;98010.72;4883745;28;113656;-85
2023/04/25 03:49:19;;;;;;;;;;;11.10;83.20;;;11.35;52.76;98015.44;4896591;28;113578;-85
2023/04/25 03:51:58;;;;;;;;;;;11.10;83.00;;;11.36;52.46;98011.50;4899336;28;123317;-86
2023/04/25 03:54:28;;;;;;;;;;;11.20;83.10;;;11.40;52.54;98009.72;4911957;28;123823;-84
2023/04/25 03:57:18;;;;;;;;;;;11.20;83.20;;;11.40;52.39;98018.00;4914287;28;114621;-84
2023/04/25 03:59:46;;;;;;;;;;;11.20;83.20;;;11.38;52.69;98003.69;4898722;28;114625;-87
2023/04/25 04:02:24;;;;;;;;;;;11.10;83.10;;;11.40;52.37;98001.41;4910634;28;124865;-86
2023/04/25 04:04:51;;;;;;;;;;;11.10;83.10;;;11.41;52.49;98003.03;4894937;28;123188;-84
2023/04/25 04:07:17;;;;;;;;;;;11.10;83.40;;;11.41;52.59;98003.03;4912526;28;112515;-86
2023/04/25 04:09:50;;;;;;;;;;;11.10;83.30;;;11.44;52.65;98007.06;4894976;28;113232;-84
2023/04/25 04:12:18;;;;;;;;;;;11.10;83.30;;;11.42;52.60;98004.66;4890159;28;124824;-86
2023/04/25 04:14:44;;;;;;;;;;;11.20;83.30;;;11.45;52.44;97998.44;4897554;28;123247;-86
2023/04/25 04:17:17;;;;;;;;;;;11.20;83.30;;;11.46;52.69;98011.13;4888000;28;113217;-86
2023/04/25 04:19:44;;;;;;;;;;;11.10;83.30;;;11.45;52.52;98009.50;4912715;28;112674;-86
2023/04/25 04:22:11;;;;;;;;;;;11.20;83.40;;;11.42;52.66;98014.91;4910278;28;124142;-85
2023/04/25 04:24:38;;;;;;;;;;;11.10;83.20;;;11.39;52.69;98016.41;4897151;28;123694;-85
2023/04/25 04:27:19;;;;;;;;;;;11.20;83.30;;;11.35;52.69;98015.44;4913434;28;114234;-86
2023/04/25 04:29:57;;;;;;;;;;;11.10;83.30;;;11.32;52.87;98012.53;4897345;28;114087;-85
2023/04/25 04:32:27;;;;;;;;;;;11.10;83.40;;;11.30;52.56;98006.53;4913931;28;124406;-85
2023/04/25 04:35:03;;;;;;;;;;;11.10;83.50;;;11.30;52.98;98015.63;4913272;28;123497;-85
2023/04/25 04:37:33;;;;;;;;;;;11.00;83.50;;;11.30;52.71;98018.41;4913115;28;113854;-86
2023/04/25 04:40:11;;;;;;;;;;;11.10;83.70;;;11.31;52.91;98025.56;4911723;28;113948;-86
2023/04/25 04:42:38;;;;;;;;;;;11.00;83.70;;;11.32;52.97;98027.19;4897820;28;124531;-85
2023/04/25 04:45:04;;;;;;;;;;;11.00;84.00;;;11.27;53.07;98030.13;4913178;28;123825;-86
2023/04/25 04:47:32;;;;;;;;;;;11.00;83.80;;;11.26;53.02;98029.34;4897255;28;113899;-87
2023/04/25 04:50:09;;;;;;;;;;;11.10;84.00;;;11.29;53.20;98025.09;4910956;28;115554;-88
2023/04/25 04:52:39;;;;;;;;;;;11.10;84.00;;;11.27;53.24;98030.13;4910392;28;124799;-87
2023/04/25 04:55:06;;;;;;;;;;;11.00;84.00;;;11.27;53.41;98030.94;4908573;28;124081;-86
2023/04/25 04:57:38;;;;;;;;;;;11.00;84.10;;;11.25;53.21;98043.47;4912178;28;113053;-86
2023/04/25 05:00:20;;;;;;;;;;;11.00;84.30;;;11.22;53.19;98049.69;4898131;28;113190;-85
2023/04/25 05:02:46;;;;;;;;;;;11.00;84.30;;;11.20;53.42;98040.91;4893480;28;123426;-84
2023/04/25 05:05:13;;;;;;;;;;;11.00;84.40;;;11.14;53.63;98053.31;4908225;28;122317;-85
2023/04/25 05:07:39;;;;;;;;;;;10.90;84.30;;;11.10;53.58;98057.91;4910983;28;114778;-86
2023/04/25 05:10:08;;;;;;;;;;;10.90;84.70;;;11.09;53.70;98057.06;4901934;28;114136;-86
2023/04/25 05:12:37;;;;;;;;;;;10.90;84.50;;;11.09;53.91;98045.22;4907913;28;122871;-86
2023/04/25 05:15:17;;;;;;;;;;;10.90;84.70;;;11.07;53.71;98040.03;4892685;28;124874;-86
2023/04/25 05:17:47;;;;;;;;;;;10.90;84.80;;;11.09;54.08;98045.22;4911516;28;113841;-86
2023/04/25 05:20:13;;;;;;;;;;;10.90;85.00;;;11.15;54.32;98047.47;4911364;28;113949;-85
2023/04/25 05:22:41;;;;;;;;;;;10.90;85.20;;;11.21;54.13;98059.13;4896049;28;123617;-86
2023/04/25 05:25:09;;;;;;;;;;;10.90;85.30;;;11.27;53.98;98053.06;4914288;28;123864;-86
2023/04/25 05:27:35;;;;;;;;;;;10.90;85.30;;;11.30;54.05;98046.06;4894662;28;113640;-87
2023/04/25 05:30:05;;;;;;;;;;;11.00;85.30;;;11.34;53.75;98057.25;4910578;28;113245;-87
2023/04/25 05:32:32;;;;;;;;;;;11.00;85.30;;;11.36;53.89;98052.19;4908397;28;124434;-86
2023/04/25 05:34:59;;;;;;;;;;;11.10;85.40;;;11.35;53.65;98054.16;4900622;28;125341;-87
2023/04/25 05:37:26;;;;;;;;;;;11.10;85.40;;;11.36;53.63;98054.97;4911181;28;114796;-87
2023/04/25 05:39:53;;;;;;;;;;;11.00;85.20;;;11.36;53.61;98057.72;4904673;28;115342;-87
2023/04/25 05:42:20;;;;;;;;;;;11.10;85.20;;;11.32;53.39;98060.38;4921551;28;124701;-84
2023/04/25 05:44:48;;;;;;;;;;;11.00;84.90;;;11.31;53.42;98064.28;4899338;28;123838;-88
2023/04/25 05:47:15;;;;;;;;;;;11.00;85.00;;;11.33;53.44;98059.22;4913102;28;113818;-87
2023/04/25 05:49:41;;;;;;;;;;;11.00;85.00;;;11.30;53.24;98057.13;4912497;28;113362;-85
2023/04/25 05:52:07;;;;;;;;;;;11.00;85.10;;;11.27;53.42;98057.78;4908098;28;124146;-85
2023/04/25 05:54:33;;;;;;;;;;;11.00;84.80;;;11.26;53.42;98057.00;4910094;28;124005;-88
2023/04/25 05:57:00;;;;;;;;;;;11.00;84.70;;;11.25;53.48;98068.38;4900207;28;114215;-88
2023/04/25 05:59:26;;;;;;;;;;;11.00;84.60;;;11.21;52.98;98050.84;4907230;28;113629;-86
2023/04/25 06:01:54;;;;;;;;;;;11.00;84.30;;;11.19;53.07;98061.41;4904458;28;123647;-88
2023/04/25 06:04:22;;;;;;;;;;;10.90;84.10;;;11.16;52.92;98062.09;4905541;28;123895;-79
2023/04/25 06:06:48;;;;;;;;;;;10.90;83.80;;;11.11;52.42;98057.56;4911601;28;114583;-79
2023/04/25 06:09:14;;;;;;;;;;;10.90;83.60;;;11.11;52.68;98065.06;4912826;28;113720;-81
2023/04/25 06:11:40;;;;;;;;;;;10.90;83.50;;;11.08;52.96;98060.19;4909202;28;124324;-79
2023/04/25 06:14:07;;;;;;;;;;;10.90;83.50;;;11.14;52.39;98065.19;4909767;28;123233;-77
2023/04/25 06:16:33;;;;;;;;;;;10.90;83.60;;;11.19;52.73;98069.72;4912861;28;114673;-78
2023/04/25 06:18:59;;;;;;;;;;;10.90;83.70;;;11.22;52.75;98069.03;4904076;28;113853;-84
2023/04/25 06:21:27;;;;;;;;;;;10.90;83.50;;;11.26;52.44;98056.19;4908289;28;123364;-82
2023/04/25 06:23:53;;;;;;;;;;;10.90;83.40;;;11.28;52.19;98056.63;4902873;28;124105;-81
2023/04/25 06:26:19;;;;;;;;;;;11.00;83.50;;;11.32;52.54;98054.84;4912466;28;115495;-82
2023/04/25 06:28:46;;;;;;;;;;;11.00;83.40;;;11.37;51.97;98045.53;4913280;28;114124;-83
2023/04/25 06:31:12;;;;;;;;;;;11.00;83.40;;;11.36;52.20;98044.69;4911573;28;124662;-80
2023/04/25 06:33:38;;;;;;;;;;;11.10;83.40;;;11.39;52.05;98041.28;4911747;28;123698;-81
2023/04/25 06:36:04;;;;;;;;;;;11.10;83.30;;;11.37;52.27;98040.81;4911454;28;114632;-81
2023/04/25 06:38:31;;;;;;;;;;;11.10;83.10;;;11.40;51.91;98040.13;4914851;28;113678;-79
2023/04/25 06:40:57;;;;;;;;;;;11.40;83.50;;;11.47;52.33;98040.41;4910093;28;124207;-83
2023/04/25 06:43:23;;;;;;;;;;;11.10;83.40;;;11.54;52.30;98058.41;4907512;28;124039;-81
2023/04/25 06:45:50;;;;;;;;;;;11.10;83.50;;;11.57;51.90;98054.97;4908915;28;114321;-81
2023/04/25 06:48:16;;;;;;;;;;;11.20;83.50;;;11.58;52.24;98054.66;4913201;28;113615;-79
2023/04/25 06:50:42;;;;;;;;;;;11.20;83.30;;;11.57;52.00;98047.47;4909461;28;124166;-80
2023/04/25 06:53:08;;;;;;;;;;;11.20;83.20;;;11.52;52.25;98052.41;4910373;28;123929;-77
2023/04/25 06:55:35;;;;;;;;;;;9.30;82.70;;;11.49;52.41;98054.69;4911359;28;113485;-81
2023/04/25 06:58:01;;;;;;;;;;;11.20;83.80;;;11.46;52.78;98054.56;4909612;28;113807;-82
2023/04/25 07:00:28;;;;;;;;;;;11.10;84.00;;;11.39;52.85;98048.75;4909275;28;124486;-84
2023/04/25 07:02:54;;;;;;;;;;;11.10;84.10;;;11.39;53.16;98046.81;4895344;28;122910;-85
2023/04/25 07:05:21;;;;;;;;;;;12.60;85.70;;;11.38;53.06;98044.38;4912475;28;114406;-82
2023/04/25 07:07:48;;;;;;;;;;;11.10;84.30;;;11.41;53.00;98050.03;4912150;28;113687;-86
2023/04/25 07:10:15;;;;;;;;;;;11.10;84.40;;;11.47;53.13;98048.72;4909482;28;124905;-81
2023/04/25 07:12:41;;;;;;;;;;;12.30;85.60;;;11.54;53.06;98058.41;4911333;28;123893;-84
2023/04/25 07:15:09;;;;;;;;;;;11.20;84.60;;;11.55;52.71;98057.25;4913741;28;115290;-83
2023/04/25 07:17:36;;;;;;;;;;;11.20;84.30;;;11.54;52.90;98056.47;4910892;28;114934;-85
2023/04/25 07:20:03;;;;;;;;;;;11.30;84.30;;;11.57;53.13;98060.50;4911169;28;124186;-85
2023/04/25 07:22:29;;;;;;;;;;;11.30;84.30;;;11.59;53.05;98063.75;4913121;28;123089;-84
2023/04/25 07:24:58;;;;;;;;;;;11.30;84.40;;;11.63;53.05;98064.69;4911029;28;114363;-84
2023/04/25 07:27:24;;;;;;;;;;;11.30;84.60;;;11.65;53.11;98060.44;4927285;28;113914;-81
2023/04/25 07:29:51;;;;;;;;;;;11.30;84.70;;;11.65;52.77;98065.16;4909783;28;124256;-87
2023/04/25 07:32:18;;;;;;;;;;;11.30;84.60;;;11.63;52.92;98065.53;4910660;28;124518;-82
2023/04/25 07:34:44;;;;;;;;;;;11.30;84.60;;;11.62;53.12;98071.38;4908270;28;114451;-82
2023/04/25 07:37:10;;;;;;;;;;;11.30;84.80;;;11.60;53.34;98070.91;4909899;28;112804;-79
2023/04/25 07:39:37;;;;;;;;;;;11.30;85.00;;;11.60;53.14;98084.72;4909677;28;123897;-82
2023/04/25 07:42:03;;;;;;;;;;;11.30;84.90;;;11.55;53.59;98073.88;4912235;28;123209;-85
2023/04/25 07:44:38;;;;;;;;;;;11.20;85.00;;;11.54;53.83;98077.78;4909027;28;114465;-81
2023/04/25 07:47:10;;;;;;;;;;;11.30;85.40;;;11.50;54.29;98078.47;4898488;28;114136;-84
2023/04/25 07:49:37;;;;;;;;;;;11.20;85.60;;;11.47;54.23;98090.22;4896589;28;124117;-85
2023/04/25 07:52:05;;;;;;;;;;;11.20;85.80;;;11.45;54.75;98086.97;4909381;28;124500;-84
2023/04/25 07:54:34;;;;;;;;;;;11.20;86.10;;;11.43;54.45;98093.97;4911601;28;114227;-84
2023/04/25 07:57:01;;;;;;;;;;;11.10;86.40;;;11.35;54.76;98092.88;4911077;28;113837;-83
2023/04/25 07:59:27;;;;;;;;;;;11.10;86.60;;;11.32;54.98;98098.28;4910133;28;123199;-85
2023/04/25 08:01:53;;;;;;;;;;;11.10;86.90;;;11.27;55.36;98097.31;4908512;28;124004;-85
2023/04/25 08:04:19;;;;;;;;;;;11.10;87.20;;;11.27;55.88;98102.84;4911532;28;115319;-80
2023/04/25 08:06:46;;;;;;;;;;;11.00;87.80;;;11.25;56.29;98102.34;4914277;28;115001;-84
2023/04/25 08:09:12;;;;;;;;;;;11.10;88.20;;;11.23;56.18;98098.31;4916203;28;124436;-85
2023/04/25 08:11:41;;;;;;;;;;;9.60;88.00;;;11.23;56.50;98117.66;4902442;28;123600;-86
2023/04/25 08:14:08;;;;;;;;;;;11.00;88.40;;;11.20;56.72;98105.34;4905609;28;113578;-84
2023/04/25 08:16:34;;;;;;;;;;;11.00;88.70;;;11.26;56.66;98111.50;4912334;28;113135;-85
2023/04/25 08:19:02;;;;;;;;;;;11.00;88.90;;;11.27;56.67;98121.41;4898169;28;124807;-84
2023/04/25 08:21:37;;;;;;;;;;;11.00;89.30;;;11.28;57.09;98125.78;4895260;28;123980;-86
2023/04/25 08:24:04;;;;;;;;;;;11.00;89.80;;;11.28;57.40;98120.25;4906923;28;114714;-87
2023/04/25 08:26:30;;;;;;;;;;;11.00;89.90;;;11.28;57.18;98126.59;4898856;28;114029;-82
2023/04/25 08:28:57;;;;;;;;;;;11.60;90.30;;;11.27;57.83;98130.50;4906289;28;124418;-86
2023/04/25 08:31:24;;;;;;;;;;;11.00;90.10;;;11.26;57.94;98126.13;4909114;28;124612;-83
2023/04/25 08:33:51;;;;;;;;;;;11.00;90.20;;;11.25;57.66;98131.97;4910147;28;114457;-86
2023/04/25 08:36:18;;;;;;;;;;;9.10;90.00;;;11.29;57.73;98138.47;4908771;28;113751;-81
2023/04/25 08:38:45;;;;;;;;;;;11.00;90.50;;;11.27;57.92;98137.97;4909477;28;124163;-84
2023/04/25 08:41:12;;;;;;;;;;;11.00;90.60;;;11.30;57.88;98153.91;4907152;28;126068;-82
2023/04/25 08:43:42;;;;;;;;;;;11.00;90.80;;;11.26;58.46;98141.91;4908222;28;114119;-82
2023/04/25 08:46:08;;;;;;;;;;;11.00;90.80;;;11.25;58.37;98154.09;4910318;28;114887;-82
2023/04/25 08:48:35;;;;;;;;;;;11.00;90.90;;;11.24;58.76;98152.47;4891845;28;124312;-82
2023/04/25 08:51:03;;;;;;;;;;;11.00;91.00;;;11.26;58.90;98155.72;4899540;28;123065;-84
2023/04/25 08:53:31;;;;;;;;;;;11.00;91.20;;;11.23;59.21;98159.13;4908700;28;115549;-82
2023/04/25 08:56:01;;;;;;;;;;;11.00;91.30;;;11.25;59.33;98165.16;4897381;28;115539;-80
2023/04/25 08:58:28;;;;;;;;;;;11.00;91.50;;;11.25;59.57;98171.50;4892489;28;124360;-79
2023/04/25 09:00:55;;;;;;;;;;;11.00;91.60;;;11.22;58.87;98171.34;4894090;28;123844;-84
2023/04/25 09:03:22;;;;;;;;;;;10.90;91.50;;;11.15;58.79;98171.03;4901952;28;114493;-80
2023/04/25 09:05:49;;;;;;;;;;;10.80;91.40;;;11.03;59.00;98186.38;4891022;28;113622;-81
2023/04/25 09:08:16;;;;;;;;;;;10.80;91.30;;;10.99;59.12;98185.44;4905950;28;124221;-81
2023/04/25 09:10:44;;;;;;;;;;;10.70;91.40;;;10.95;59.16;98178.94;4904613;28;124293;-81
2023/04/25 09:13:15;;;;;;;;;;;10.70;91.40;;;10.91;59.47;98183.50;4902568;28;114390;-82
2023/04/25 09:15:53;;;;;;;;;;;10.70;91.50;;;10.86;59.10;98191.97;4903324;28;113702;-83
2023/04/25 09:18:24;;;;;;;;;;;10.60;91.50;;;10.83;59.24;98198.16;4895318;28;124143;-83
2023/04/25 09:20:52;;;;;;;;;;;10.70;91.70;;;10.84;59.95;98195.06;4902905;28;124026;-84
2023/04/25 09:23:20;;;;;;;;;;;10.60;91.70;;;10.88;59.95;98199.91;4901762;28;113503;-84
2023/04/25 09:25:51;;;;;;;;;;;10.70;91.80;;;10.89;59.99;98204.31;4901130;28;113664;-86
2023/04/25 09:28:28;;;;;;;;;;;10.60;92.00;;;10.87;60.08;98203.84;4911355;28;126569;-86
2023/04/25 09:30:56;;;;;;;;;;;10.60;92.10;;;10.82;60.01;98213.91;4910988;28;124202;-85
2023/04/25 09:33:30;;;;;;;;;;;10.60;92.20;;;10.80;60.44;98210.69;4913695;28;113482;-85
2023/04/25 09:36:03;;;;;;;;;;;10.60;92.20;;;10.80;60.69;98221.75;4912182;28;113656;-84
2023/04/25 09:38:31;;;;;;;;;;;10.60;92.30;;;10.82;60.41;98224.16;4910824;28;124407;-84
2023/04/25 09:41:00;;;;;;;;;;;10.60;92.40;;;10.87;60.70;98229.50;4910862;28;124468;-81
2023/04/25 09:43:27;;;;;;;;;;;10.60;92.40;;;10.89;60.42;98224.47;4898342;28;115320;-84
2023/04/25 09:45:57;;;;;;;;;;;10.60;92.40;;;10.93;60.00;98230.97;4912821;28;113976;-83
2023/04/25 09:48:24;;;;;;;;;;;10.60;92.40;;;10.96;59.97;98230.31;4896978;28;123454;-84
2023/04/25 09:51:04;;;;;;;;;;;10.70;92.40;;;11.02;60.13;98239.25;4901239;28;123760;-83
2023/04/25 09:53:31;;;;;;;;;;;10.70;92.40;;;11.01;60.35;98237.59;4923639;28;114408;-84
2023/04/25 09:56:00;;;;;;;;;;;10.70;92.40;;;11.08;59.63;98248.97;4904624;28;113719;-87
2023/04/25 09:58:29;;;;;;;;;;;10.70;92.30;;;11.12;59.41;98251.88;4909512;28;124262;-86
2023/04/25 10:01:00;;;;;;;;;;;10.70;92.20;;;11.10;59.79;98262.50;4899766;28;122920;-83
2023/04/25 10:03:30;;;;;;;;;;;10.80;92.30;;;11.08;59.73;98254.50;4910800;28;113709;-82
2023/04/25 10:05:59;;;;;;;;;;;10.70;92.30;;;11.10;59.95;98248.66;4902930;28;113849;-83
2023/04/25 10:08:31;;;;;;;;;;;10.80;92.40;;;11.13;59.68;98265.41;4925793;28;124175;-85
2023/04/25 10:11:00;;;;;;;;;;;10.80;92.40;;;11.14;59.50;98264.25;4909630;28;123338;-83
2023/04/25 10:13:29;;;;;;;;;;;10.80;92.40;;;11.18;59.74;98269.94;4911149;28;115025;-81
2023/04/25 10:15:57;;;;;;;;;;;10.90;92.40;;;11.19;59.46;98279.84;4907461;28;113045;-81
2023/04/25 10:18:27;;;;;;;;;;;10.90;92.40;;;11.20;59.70;98278.69;4909164;28;123664;-84
2023/04/25 10:20:55;;;;;;;;;;;10.80;92.50;;;11.17;59.44;98294.00;4903844;28;123963;-83
2023/04/25 10:23:22;;;;;;;;;;;10.90;92.40;;;11.17;59.39;98291.22;4909633;28;114673;-85
2023/04/25 10:25:49;;;;;;;;;;;10.90;92.40;;;11.16;59.56;98291.56;4835350;28;1863667;-86
2023/04/25 10:28:16;;;;;;;;;;;10.90;92.30;;;11.12;59.77;98301.66;4909848;28;125393;-82
2023/04/25 10:31:02;;;;;;;;;;;10.80;92.20;;;11.06;59.35;98307.34;4911234;28;124218;-86
2023/04/25 10:33:38;;;;;;;;;;;10.80;92.10;;;11.06;59.04;98303.78;4911055;28;114681;-83
2023/04/25 10:36:26;;;;;;;;;;;10.80;92.10;;;11.00;58.95;98303.16;4897570;28;114021;-85
2023/04/25 10:38:54;;;;;;;;;;;10.70;92.00;;;10.96;59.17;98312.41;4909039;28;124394;-82
2023/04/25 10:41:22;;;;;;;;;;;10.70;92.10;;;10.90;59.27;98303.47;4907113;28;123700;-83
2023/04/25 10:43:50;;;;;;;;;;;10.60;92.00;;;10.85;59.47;98306.41;4911370;28;114614;-83
2023/04/25 10:46:24;;;;;;;;;;;10.60;92.10;;;10.85;59.83;98317.47;4910275;28;113575;-84
2023/04/25 10:49:01;;;;;;;;;;;10.60;92.20;;;10.82;60.06;98332.75;4902110;28;124327;-83
2023/04/25 10:51:28;;;;;;;;;;;10.60;92.40;;;10.77;59.25;98337.63;4894735;28;124166;-83
2023/04/25 10:53:54;;;;;;;;;;;10.60;92.30;;;10.73;59.16;98333.91;4909580;28;114023;-80
2023/04/25 10:56:22;;;;;;;;;;;10.50;92.10;;;10.67;59.27;98333.25;4909874;28;113108;-83
2023/04/25 10:58:49;;;;;;;;;;;10.40;92.00;;;10.63;59.62;98350.78;4906066;28;123642;-87
2023/04/25 11:01:24;;;;;;;;;;;10.40;92.00;;;10.58;59.75;98352.56;4906746;28;123165;-86
2023/04/25 11:03:57;;;;;;;;;;;10.40;92.10;;;10.56;59.71;98354.03;4925547;28;114911;-85
2023/04/25 11:06:31;;;;;;;;;;;10.30;92.10;;;10.55;59.79;98355.97;4906083;28;113557;-87
2023/04/25 11:09:00;;;;;;;;;;;10.30;92.20;;;10.57;59.71;98353.69;4912103;28;124449;-77
2023/04/25 11:11:26;;;;;;;;;;;10.40;92.30;;;10.58;60.40;98355.31;4903210;28;124036;-79
2023/04/25 11:13:53;;;;;;;;;;;10.40;92.50;;;10.66;60.20;98352.91;4910766;28;114748;-80
2023/04/25 11:16:19;;;;;;;;;;;10.40;92.50;;;10.66;59.88;98358.44;4908487;28;113920;-79
2023/04/25 11:18:45;;;;;;;;;;;10.50;92.50;;;10.69;59.89;98363.31;4910545;28;124962;-78
2023/04/25 11:21:11;;;;;;;;;;;10.60;92.50;;;10.67;59.87;98362.84;4910158;28;124253;-79